Terminal Aerodrome Forecast
Issued by NWS

Home | Current Version | Previous Version | Text Only | Print | Product List | Glossary On
Versions: 1 2 3 4 5 6 7 8 9 10 11 12 13 14 15 16 17 18 19
000
FTUS46 KSGX 231100
TAFONT
TAF
KONT 231133Z 2312/2418 VRB04KT P6SM FEW009
     FM232000 25012KT P6SM SKC
     FM240400 VRB05KT P6SM SKC
     FM241200 VRB05KT P6SM BKN010
     FM241500 VRB05KT P6SM FEW012=

USA.gov is the U.S. government's official web portal to all federal, state and local government web resources and services.